sensor_id;sensor_type;location;lat;lon;timestamp;temperature;humidity
3005;DHT22;1512;51.486;6.610;2023-02-26T00:00:28;1.80;1.00
3005;DHT22;1512;51.486;6.610;2023-02-26T00:04:37;1.70;1.00
3005;DHT22;1512;51.486;6.610;2023-02-26T00:08:45;1.60;1.00
3005;DHT22;1512;51.486;6.610;2023-02-26T00:12:54;1.70;1.00
3005;DHT22;1512;51.486;6.610;2023-02-26T00:21:24;1.70;99.90
3005;DHT22;1512;51.486;6.610;2023-02-26T00:25:33;1.70;21.90
3005;DHT22;1512;51.486;6.610;2023-02-26T00:29:42;1.80;76.20
3005;DHT22;1512;51.486;6.610;2023-02-26T00:33:52;1.80;1.00
3005;DHT22;1512;51.486;6.610;2023-02-26T00:38:04;1.80;3.40
3005;DHT22;1512;51.486;6.610;2023-02-26T00:42:14;1.90;1.00
3005;DHT22;1512;51.486;6.610;2023-02-26T00:50:40;1.80;1.00
3005;DHT22;1512;51.486;6.610;2023-02-26T00:54:48;1.80;1.00
3005;DHT22;1512;51.486;6.610;2023-02-26T00:58:57;1.80;1.00
3005;DHT22;1512;51.486;6.610;2023-02-26T01:03:07;1.70;1.00
3005;DHT22;1512;51.486;6.610;2023-02-26T01:07:20;1.80;1.00
3005;DHT22;1512;51.486;6.610;2023-02-26T01:11:31;1.80;1.00
3005;DHT22;1512;51.486;6.610;2023-02-26T01:15:43;1.70;1.00
3005;DHT22;1512;51.486;6.610;2023-02-26T01:20:19;1.80;1.00
3005;DHT22;1512;51.486;6.610;2023-02-26T01:24:29;1.70;1.00
3005;DHT22;1512;51.486;6.610;2023-02-26T01:28:38;1.70;1.00
3005;DHT22;1512;51.486;6.610;2023-02-26T01:33:14;1.60;1.00
3005;DHT22;1512;51.486;6.610;2023-02-26T01:41:58;1.60;1.00
3005;DHT22;1512;51.486;6.610;2023-02-26T01:46:08;1.60;1.00
3005;DHT22;1512;51.486;6.610;2023-02-26T01:50:20;1.50;1.00
3005;DHT22;1512;51.486;6.610;2023-02-26T01:54:37;1.50;1.00
3005;DHT22;1512;51.486;6.610;2023-02-26T01:58:43;1.40;1.00
3005;DHT22;1512;51.486;6.610;2023-02-26T02:02:53;1.50;1.00
3005;DHT22;1512;51.486;6.610;2023-02-26T02:07:04;1.40;1.00
3005;DHT22;1512;51.486;6.610;2023-02-26T02:11:14;1.30;1.00
3005;DHT22;1512;51.486;6.610;2023-02-26T02:15:29;1.20;1.00
3005;DHT22;1512;51.486;6.610;2023-02-26T02:19:58;1.20;1.00
3005;DHT22;1512;51.486;6.610;2023-02-26T02:24:27;1.20;1.00
3005;DHT22;1512;51.486;6.610;2023-02-26T02:37:15;1.00;1.00
3005;DHT22;1512;51.486;6.610;2023-02-26T02:45:55;0.90;1.00
3005;DHT22;1512;51.486;6.610;2023-02-26T02:55:12;1.00;93.70
3005;DHT22;1512;51.486;6.610;2023-02-26T02:59:32;0.90;99.90
3005;DHT22;1512;51.486;6.610;2023-02-26T03:03:57;0.90;99.90
3005;DHT22;1512;51.486;6.610;2023-02-26T03:08:26;0.80;99.90
3005;DHT22;1512;51.486;6.610;2023-02-26T03:12:35;0.80;99.90
3005;DHT22;1512;51.486;6.610;2023-02-26T03:34:28;0.70;99.90
3005;DHT22;1512;51.486;6.610;2023-02-26T03:43:23;0.70;99.90
3005;DHT22;1512;51.486;6.610;2023-02-26T03:47:32;0.60;99.90
3005;DHT22;1512;51.486;6.610;2023-02-26T03:51:42;0.50;99.90
3005;DHT22;1512;51.486;6.610;2023-02-26T03:56:02;0.50;99.90
3005;DHT22;1512;51.486;6.610;2023-02-26T04:00:10;0.60;99.90
3005;DHT22;1512;51.486;6.610;2023-02-26T04:04:50;0.60;99.90
3005;DHT22;1512;51.486;6.610;2023-02-26T04:08:59;0.50;99.90
3005;DHT22;1512;51.486;6.610;2023-02-26T04:13:27;0.50;99.90
3005;DHT22;1512;51.486;6.610;2023-02-26T04:17:36;0.50;99.90
3005;DHT22;1512;51.486;6.610;2023-02-26T04:21:44;0.60;99.90
3005;DHT22;1512;51.486;6.610;2023-02-26T04:25:53;0.50;54.90
3005;DHT22;1512;51.486;6.610;2023-02-26T04:30:02;0.60;99.90
3005;DHT22;1512;51.486;6.610;2023-02-26T04:34:11;0.50;62.00
3005;DHT22;1512;51.486;6.610;2023-02-26T04:38:39;0.50;51.70
3005;DHT22;1512;51.486;6.610;2023-02-26T04:42:48;0.50;17.80
3005;DHT22;1512;51.486;6.610;2023-02-26T04:46:57;0.50;1.00
3005;DHT22;1512;51.486;6.610;2023-02-26T04:51:05;0.50;18.50
3005;DHT22;1512;51.486;6.610;2023-02-26T04:55:14;0.50;10.00
3005;DHT22;1512;51.486;6.610;2023-02-26T04:59:23;0.40;1.00
3005;DHT22;1512;51.486;6.610;2023-02-26T05:03:31;0.30;1.00
3005;DHT22;1512;51.486;6.610;2023-02-26T05:07:40;0.20;2.80
3005;DHT22;1512;51.486;6.610;2023-02-26T05:11:49;0.30;1.00
3005;DHT22;1512;51.486;6.610;2023-02-26T05:15:58;0.30;1.00
3005;DHT22;1512;51.486;6.610;2023-02-26T05:20:07;0.30;1.00
3005;DHT22;1512;51.486;6.610;2023-02-26T05:24:17;0.10;1.00
3005;DHT22;1512;51.486;6.610;2023-02-26T05:28:26;0.10;1.00
3005;DHT22;1512;51.486;6.610;2023-02-26T05:32:55;0.10;1.00
3005;DHT22;1512;51.486;6.610;2023-02-26T05:37:23;0.10;1.00
3005;DHT22;1512;51.486;6.610;2023-02-26T05:41:51;0.10;1.00
3005;DHT22;1512;51.486;6.610;2023-02-26T05:46:01;0.00;1.00
3005;DHT22;1512;51.486;6.610;2023-02-26T05:50:11;-0.10;1.00
3005;DHT22;1512;51.486;6.610;2023-02-26T05:54:19;0.00;1.00
3005;DHT22;1512;51.486;6.610;2023-02-26T05:58:28;-0.10;1.00
3005;DHT22;1512;51.486;6.610;2023-02-26T06:02:38;-0.10;1.00
3005;DHT22;1512;51.486;6.610;2023-02-26T06:06:46;-0.10;1.00
3005;DHT22;1512;51.486;6.610;2023-02-26T06:10:55;-0.20;1.00
3005;DHT22;1512;51.486;6.610;2023-02-26T06:15:04;-0.20;1.00
3005;DHT22;1512;51.486;6.610;2023-02-26T06:19:14;-0.20;1.00
3005;DHT22;1512;51.486;6.610;2023-02-26T06:23:22;-0.20;1.00
3005;DHT22;1512;51.486;6.610;2023-02-26T06:27:31;-0.20;1.00
3005;DHT22;1512;51.486;6.610;2023-02-26T06:31:40;-0.20;1.00
3005;DHT22;1512;51.486;6.610;2023-02-26T06:36:08;-0.20;1.00
3005;DHT22;1512;51.486;6.610;2023-02-26T06:40:17;-0.20;1.00
3005;DHT22;1512;51.486;6.610;2023-02-26T06:44:25;-0.30;1.00
3005;DHT22;1512;51.486;6.610;2023-02-26T06:48:34;-0.30;1.00
3005;DHT22;1512;51.486;6.610;2023-02-26T06:52:43;-0.30;11.70
3005;DHT22;1512;51.486;6.610;2023-02-26T06:56:51;-0.20;1.00
3005;DHT22;1512;51.486;6.610;2023-02-26T07:01:03;-0.30;1.00
3005;DHT22;1512;51.486;6.610;2023-02-26T07:05:12;-0.30;1.00
3005;DHT22;1512;51.486;6.610;2023-02-26T07:09:20;-0.20;1.00
3005;DHT22;1512;51.486;6.610;2023-02-26T07:13:29;-0.30;1.00
3005;DHT22;1512;51.486;6.610;2023-02-26T07:17:38;-0.30;1.00
3005;DHT22;1512;51.486;6.610;2023-02-26T07:22:06;-0.10;51.50
3005;DHT22;1512;51.486;6.610;2023-02-26T07:26:34;-0.10;1.00
3005;DHT22;1512;51.486;6.610;2023-02-26T07:30:42;0.00;1.00
3005;DHT22;1512;51.486;6.610;2023-02-26T07:34:51;-0.10;1.00
3005;DHT22;1512;51.486;6.610;2023-02-26T07:39:00;-0.10;1.00
3005;DHT22;1512;51.486;6.610;2023-02-26T07:43:08;-0.20;1.00
3005;DHT22;1512;51.486;6.610;2023-02-26T07:47:36;-0.10;1.00
3005;DHT22;1512;51.486;6.610;2023-02-26T07:51:45;-0.10;1.00
3005;DHT22;1512;51.486;6.610;2023-02-26T07:55:54;0.00;1.00
3005;DHT22;1512;51.486;6.610;2023-02-26T08:00:04;0.10;1.00
3005;DHT22;1512;51.486;6.610;2023-02-26T08:04:15;0.20;1.00
3005;DHT22;1512;51.486;6.610;2023-02-26T08:08:23;0.20;1.00
3005;DHT22;1512;51.486;6.610;2023-02-26T08:12:32;0.30;1.00
3005;DHT22;1512;51.486;6.610;2023-02-26T08:16:40;0.40;1.00
3005;DHT22;1512;51.486;6.610;2023-02-26T08:20:51;0.50;1.00
3005;DHT22;1512;51.486;6.610;2023-02-26T08:24:59;0.60;1.00
3005;DHT22;1512;51.486;6.610;2023-02-26T08:29:08;0.70;1.00
3005;DHT22;1512;51.486;6.610;2023-02-26T08:33:17;0.80;1.00
3005;DHT22;1512;51.486;6.610;2023-02-26T08:37:25;0.90;1.00
3005;DHT22;1512;51.486;6.610;2023-02-26T08:41:34;1.10;1.00
3005;DHT22;1512;51.486;6.610;2023-02-26T08:45:44;1.20;1.00
3005;DHT22;1512;51.486;6.610;2023-02-26T08:49:52;1.20;1.00
3005;DHT22;1512;51.486;6.610;2023-02-26T08:54:01;1.30;1.00
3005;DHT22;1512;51.486;6.610;2023-02-26T08:58:31;1.50;1.00
3005;DHT22;1512;51.486;6.610;2023-02-26T09:02:40;1.60;1.00
3005;DHT22;1512;51.486;6.610;2023-02-26T09:07:08;1.80;1.00
3005;DHT22;1512;51.486;6.610;2023-02-26T09:11:16;2.00;1.00
3005;DHT22;1512;51.486;6.610;2023-02-26T09:15:25;2.00;1.00
3005;DHT22;1512;51.486;6.610;2023-02-26T09:19:34;2.10;1.00
3005;DHT22;1512;51.486;6.610;2023-02-26T09:23:43;2.30;1.00
3005;DHT22;1512;51.486;6.610;2023-02-26T09:27:51;2.30;1.00
3005;DHT22;1512;51.486;6.610;2023-02-26T09:32:00;2.50;1.00
3005;DHT22;1512;51.486;6.610;2023-02-26T09:36:09;2.70;1.00
3005;DHT22;1512;51.486;6.610;2023-02-26T09:40:57;2.70;1.00
3005;DHT22;1512;51.486;6.610;2023-02-26T09:45:10;2.80;1.00
3005;DHT22;1512;51.486;6.610;2023-02-26T09:54:13;2.90;1.00
3005;DHT22;1512;51.486;6.610;2023-02-26T09:58:34;2.90;1.00
3005;DHT22;1512;51.486;6.610;2023-02-26T10:07:52;3.00;1.00
3005;DHT22;1512;51.486;6.610;2023-02-26T10:12:19;3.00;1.00
3005;DHT22;1512;51.486;6.610;2023-02-26T10:16:32;3.10;1.00
3005;DHT22;1512;51.486;6.610;2023-02-26T10:25:05;3.30;1.00
3005;DHT22;1512;51.486;6.610;2023-02-26T10:33:49;3.40;1.00
3005;DHT22;1512;51.486;6.610;2023-02-26T10:38:07;3.50;1.00
3005;DHT22;1512;51.486;6.610;2023-02-26T10:42:25;3.30;1.00
3005;DHT22;1512;51.486;6.610;2023-02-26T10:46:41;3.40;1.00
3005;DHT22;1512;51.486;6.610;2023-02-26T10:50:52;3.30;1.00
3005;DHT22;1512;51.486;6.610;2023-02-26T10:59:32;3.40;1.00
3005;DHT22;1512;51.486;6.610;2023-02-26T11:03:43;3.70;1.00
3005;DHT22;1512;51.486;6.610;2023-02-26T11:07:55;3.80;1.00
3005;DHT22;1512;51.486;6.610;2023-02-26T11:16:20;4.20;1.00
3005;DHT22;1512;51.486;6.610;2023-02-26T11:20:33;4.40;1.00
3005;DHT22;1512;51.486;6.610;2023-02-26T11:24:46;4.60;1.00
3005;DHT22;1512;51.486;6.610;2023-02-26T11:28:57;4.70;1.00
3005;DHT22;1512;51.486;6.610;2023-02-26T11:33:19;4.70;1.00
3005;DHT22;1512;51.486;6.610;2023-02-26T11:37:37;5.00;1.00
3005;DHT22;1512;51.486;6.610;2023-02-26T11:41:41;5.40;1.00
3005;DHT22;1512;51.486;6.610;2023-02-26T11:45:59;5.30;1.00
3005;DHT22;1512;51.486;6.610;2023-02-26T11:50:19;5.20;1.00
3005;DHT22;1512;51.486;6.610;2023-02-26T11:54:33;5.00;1.00
3005;DHT22;1512;51.486;6.610;2023-02-26T11:58:44;5.10;1.00
3005;DHT22;1512;51.486;6.610;2023-02-26T12:03:01;5.30;1.00
3005;DHT22;1512;51.486;6.610;2023-02-26T12:07:16;5.30;99.90
3005;DHT22;1512;51.486;6.610;2023-02-26T12:11:33;5.40;99.90
3005;DHT22;1512;51.486;6.610;2023-02-26T12:15:53;5.40;1.00
3005;DHT22;1512;51.486;6.610;2023-02-26T12:24:36;5.00;99.90
3005;DHT22;1512;51.486;6.610;2023-02-26T12:29:02;5.20;99.90
3005;DHT22;1512;51.486;6.610;2023-02-26T12:33:31;5.30;99.90
3005;DHT22;1512;51.486;6.610;2023-02-26T12:38:34;5.10;99.90
3005;DHT22;1512;51.486;6.610;2023-02-26T12:42:17;5.00;1.00
3005;DHT22;1512;51.486;6.610;2023-02-26T12:46:52;5.00;99.90
3005;DHT22;1512;51.486;6.610;2023-02-26T12:51:25;5.20;99.90
3005;DHT22;1512;51.486;6.610;2023-02-26T13:22:30;4.70;99.90
3005;DHT22;1512;51.486;6.610;2023-02-26T13:26:40;4.80;99.90
3005;DHT22;1512;51.486;6.610;2023-02-26T13:30:55;4.90;99.90
3005;DHT22;1512;51.486;6.610;2023-02-26T13:35:06;4.90;99.90
3005;DHT22;1512;51.486;6.610;2023-02-26T13:43:59;5.30;99.90
3005;DHT22;1512;51.486;6.610;2023-02-26T13:52:48;5.20;99.90
3005;DHT22;1512;51.486;6.610;2023-02-26T13:57:08;5.20;99.90
3005;DHT22;1512;51.486;6.610;2023-02-26T14:01:25;5.20;99.90
3005;DHT22;1512;51.486;6.610;2023-02-26T14:06:06;5.30;99.90
3005;DHT22;1512;51.486;6.610;2023-02-26T14:10:22;5.50;99.90
3005;DHT22;1512;51.486;6.610;2023-02-26T14:19:28;5.60;99.90
3005;DHT22;1512;51.486;6.610;2023-02-26T14:23:37;5.60;99.90
3005;DHT22;1512;51.486;6.610;2023-02-26T14:28:31;5.70;99.90
3005;DHT22;1512;51.486;6.610;2023-02-26T14:37:03;5.70;99.90
3005;DHT22;1512;51.486;6.610;2023-02-26T14:41:26;5.70;99.90
3005;DHT22;1512;51.486;6.610;2023-02-26T14:45:37;5.60;99.90
3005;DHT22;1512;51.486;6.610;2023-02-26T14:49:48;5.60;99.90
3005;DHT22;1512;51.486;6.610;2023-02-26T14:58:59;5.60;99.90
3005;DHT22;1512;51.486;6.610;2023-02-26T15:21:27;5.40;99.90
3005;DHT22;1512;51.486;6.610;2023-02-26T15:25:37;5.30;99.90
3005;DHT22;1512;51.486;6.610;2023-02-26T15:30:05;5.40;99.90
3005;DHT22;1512;51.486;6.610;2023-02-26T15:34:33;5.30;99.90
3005;DHT22;1512;51.486;6.610;2023-02-26T15:43:15;5.20;99.90
3005;DHT22;1512;51.486;6.610;2023-02-26T15:47:28;5.10;99.90
3005;DHT22;1512;51.486;6.610;2023-02-26T15:51:38;5.10;99.90
3005;DHT22;1512;51.486;6.610;2023-02-26T15:55:50;5.00;99.90
3005;DHT22;1512;51.486;6.610;2023-02-26T16:04:39;4.90;99.90
3005;DHT22;1512;51.486;6.610;2023-02-26T16:08:48;4.90;99.90
3005;DHT22;1512;51.486;6.610;2023-02-26T16:12:58;4.90;99.90
3005;DHT22;1512;51.486;6.610;2023-02-26T16:17:13;4.90;99.90
3005;DHT22;1512;51.486;6.610;2023-02-26T16:21:30;4.80;99.90
3005;DHT22;1512;51.486;6.610;2023-02-26T16:26:04;4.80;99.90
3005;DHT22;1512;51.486;6.610;2023-02-26T16:29:56;4.80;99.90
3005;DHT22;1512;51.486;6.610;2023-02-26T16:34:21;4.70;99.90
3005;DHT22;1512;51.486;6.610;2023-02-26T16:38:20;4.70;99.90
3005;DHT22;1512;51.486;6.610;2023-02-26T16:42:43;4.60;99.90
3005;DHT22;1512;51.486;6.610;2023-02-26T16:46:47;4.60;99.90
3005;DHT22;1512;51.486;6.610;2023-02-26T16:51:00;4.50;99.90
3005;DHT22;1512;51.486;6.610;2023-02-26T16:55:11;4.50;99.90
3005;DHT22;1512;51.486;6.610;2023-02-26T16:59:25;4.40;99.90
3005;DHT22;1512;51.486;6.610;2023-02-26T17:03:34;4.30;99.90
3005;DHT22;1512;51.486;6.610;2023-02-26T17:07:59;4.30;99.90
3005;DHT22;1512;51.486;6.610;2023-02-26T17:16:23;4.10;99.90
3005;DHT22;1512;51.486;6.610;2023-02-26T17:20:32;4.10;99.90
3005;DHT22;1512;51.486;6.610;2023-02-26T17:24:43;4.10;99.90
3005;DHT22;1512;51.486;6.610;2023-02-26T17:28:53;4.00;99.90
3005;DHT22;1512;51.486;6.610;2023-02-26T17:33:02;3.90;99.90
3005;DHT22;1512;51.486;6.610;2023-02-26T17:37:12;3.90;99.90
3005;DHT22;1512;51.486;6.610;2023-02-26T17:41:21;3.90;1.00
3005;DHT22;1512;51.486;6.610;2023-02-26T17:45:31;3.80;99.90
3005;DHT22;1512;51.486;6.610;2023-02-26T17:49:40;3.80;1.00
3005;DHT22;1512;51.486;6.610;2023-02-26T17:53:49;3.80;1.00
3005;DHT22;1512;51.486;6.610;2023-02-26T17:58:17;3.70;1.00
3005;DHT22;1512;51.486;6.610;2023-02-26T18:02:27;3.70;1.00
3005;DHT22;1512;51.486;6.610;2023-02-26T18:06:36;3.60;1.00
3005;DHT22;1512;51.486;6.610;2023-02-26T18:10:45;3.60;1.00
3005;DHT22;1512;51.486;6.610;2023-02-26T18:14:53;3.60;1.00
3005;DHT22;1512;51.486;6.610;2023-02-26T18:19:02;3.60;1.00
3005;DHT22;1512;51.486;6.610;2023-02-26T18:23:11;3.50;1.00
3005;DHT22;1512;51.486;6.610;2023-02-26T18:27:23;3.50;1.00
3005;DHT22;1512;51.486;6.610;2023-02-26T18:31:32;3.50;1.00
3005;DHT22;1512;51.486;6.610;2023-02-26T18:35:52;3.40;1.00
3005;DHT22;1512;51.486;6.610;2023-02-26T18:39:57;3.40;1.00
3005;DHT22;1512;51.486;6.610;2023-02-26T18:44:06;3.40;1.00
3005;DHT22;1512;51.486;6.610;2023-02-26T18:48:17;3.30;1.00
3005;DHT22;1512;51.486;6.610;2023-02-26T18:52:26;3.20;1.00
3005;DHT22;1512;51.486;6.610;2023-02-26T18:56:35;3.20;1.00
3005;DHT22;1512;51.486;6.610;2023-02-26T19:00:44;3.20;1.00
3005;DHT22;1512;51.486;6.610;2023-02-26T19:04:53;3.20;1.00
3005;DHT22;1512;51.486;6.610;2023-02-26T19:09:03;3.00;1.00
3005;DHT22;1512;51.486;6.610;2023-02-26T19:13:12;3.00;1.00
3005;DHT22;1512;51.486;6.610;2023-02-26T19:17:21;2.90;1.00
3005;DHT22;1512;51.486;6.610;2023-02-26T19:21:30;2.80;1.00
3005;DHT22;1512;51.486;6.610;2023-02-26T19:25:40;2.80;1.00
3005;DHT22;1512;51.486;6.610;2023-02-26T19:29:49;2.70;1.00
3005;DHT22;1512;51.486;6.610;2023-02-26T19:33:58;2.70;1.00
3005;DHT22;1512;51.486;6.610;2023-02-26T19:38:07;2.80;1.00
3005;DHT22;1512;51.486;6.610;2023-02-26T19:42:17;2.80;1.00
3005;DHT22;1512;51.486;6.610;2023-02-26T19:46:25;2.80;1.00
3005;DHT22;1512;51.486;6.610;2023-02-26T19:50:34;2.80;1.00
3005;DHT22;1512;51.486;6.610;2023-02-26T19:54:43;2.90;1.00
3005;DHT22;1512;51.486;6.610;2023-02-26T19:58:51;2.90;1.00
3005;DHT22;1512;51.486;6.610;2023-02-26T20:03:00;3.00;1.00
3005;DHT22;1512;51.486;6.610;2023-02-26T20:07:09;3.00;1.00
3005;DHT22;1512;51.486;6.610;2023-02-26T20:11:18;2.80;1.00
3005;DHT22;1512;51.486;6.610;2023-02-26T20:15:27;2.90;1.00
3005;DHT22;1512;51.486;6.610;2023-02-26T20:19:55;2.80;1.00
3005;DHT22;1512;51.486;6.610;2023-02-26T20:24:04;2.80;1.00
3005;DHT22;1512;51.486;6.610;2023-02-26T20:28:12;2.80;1.00
3005;DHT22;1512;51.486;6.610;2023-02-26T20:32:22;2.80;1.00
3005;DHT22;1512;51.486;6.610;2023-02-26T20:36:31;2.70;1.00
3005;DHT22;1512;51.486;6.610;2023-02-26T20:40:42;2.80;1.00
3005;DHT22;1512;51.486;6.610;2023-02-26T20:44:51;2.80;1.00
3005;DHT22;1512;51.486;6.610;2023-02-26T20:48:59;2.70;1.00
3005;DHT22;1512;51.486;6.610;2023-02-26T20:53:09;2.70;1.00
3005;DHT22;1512;51.486;6.610;2023-02-26T20:57:18;2.80;1.00
3005;DHT22;1512;51.486;6.610;2023-02-26T21:01:46;2.70;1.00
3005;DHT22;1512;51.486;6.610;2023-02-26T21:05:55;2.70;1.00
3005;DHT22;1512;51.486;6.610;2023-02-26T21:10:12;2.60;1.00
3005;DHT22;1512;51.486;6.610;2023-02-26T21:14:16;2.70;1.00
3005;DHT22;1512;51.486;6.610;2023-02-26T21:18:25;2.70;1.00
3005;DHT22;1512;51.486;6.610;2023-02-26T21:22:34;2.70;1.00
3005;DHT22;1512;51.486;6.610;2023-02-26T21:26:43;2.70;1.00
3005;DHT22;1512;51.486;6.610;2023-02-26T21:30:52;2.70;1.00
3005;DHT22;1512;51.486;6.610;2023-02-26T21:35:01;2.60;1.00
3005;DHT22;1512;51.486;6.610;2023-02-26T21:39:10;2.60;1.00
3005;DHT22;1512;51.486;6.610;2023-02-26T21:43:18;2.50;1.00
3005;DHT22;1512;51.486;6.610;2023-02-26T21:47:27;2.40;1.00
3005;DHT22;1512;51.486;6.610;2023-02-26T21:51:36;2.40;1.00
3005;DHT22;1512;51.486;6.610;2023-02-26T21:55:45;2.30;1.00
3005;DHT22;1512;51.486;6.610;2023-02-26T21:59:53;2.40;1.00
3005;DHT22;1512;51.486;6.610;2023-02-26T22:04:02;2.30;1.00
3005;DHT22;1512;51.486;6.610;2023-02-26T22:08:11;2.20;1.00
3005;DHT22;1512;51.486;6.610;2023-02-26T22:12:20;2.20;1.00
3005;DHT22;1512;51.486;6.610;2023-02-26T22:16:28;2.10;1.00
3005;DHT22;1512;51.486;6.610;2023-02-26T22:20:56;2.10;1.00
3005;DHT22;1512;51.486;6.610;2023-02-26T22:25:06;2.00;1.00
3005;DHT22;1512;51.486;6.610;2023-02-26T22:29:16;1.80;1.00
3005;DHT22;1512;51.486;6.610;2023-02-26T22:33:26;1.90;1.00
3005;DHT22;1512;51.486;6.610;2023-02-26T22:37:35;1.80;1.00
3005;DHT22;1512;51.486;6.610;2023-02-26T22:41:43;1.70;1.00
3005;DHT22;1512;51.486;6.610;2023-02-26T22:45:52;1.70;1.00
3005;DHT22;1512;51.486;6.610;2023-02-26T22:50:01;1.70;1.00
3005;DHT22;1512;51.486;6.610;2023-02-26T22:54:09;1.70;1.00
3005;DHT22;1512;51.486;6.610;2023-02-26T22:58:19;1.60;1.00
3005;DHT22;1512;51.486;6.610;2023-02-26T23:02:28;1.60;1.00
3005;DHT22;1512;51.486;6.610;2023-02-26T23:06:37;1.60;1.00
3005;DHT22;1512;51.486;6.610;2023-02-26T23:10:45;1.70;1.00
3005;DHT22;1512;51.486;6.610;2023-02-26T23:14:54;1.60;1.00
3005;DHT22;1512;51.486;6.610;2023-02-26T23:19:03;1.40;1.00
3005;DHT22;1512;51.486;6.610;2023-02-26T23:23:11;1.40;1.00
3005;DHT22;1512;51.486;6.610;2023-02-26T23:27:20;1.40;1.00
3005;DHT22;1512;51.486;6.610;2023-02-26T23:31:33;1.40;1.00
3005;DHT22;1512;51.486;6.610;2023-02-26T23:35:42;1.40;1.00
3005;DHT22;1512;51.486;6.610;2023-02-26T23:40:10;1.30;1.00
3005;DHT22;1512;51.486;6.610;2023-02-26T23:44:21;1.10;1.00
3005;DHT22;1512;51.486;6.610;2023-02-26T23:48:30;1.10;1.00
3005;DHT22;1512;51.486;6.610;2023-02-26T23:52:39;1.20;1.00
3005;DHT22;1512;51.486;6.610;2023-02-26T23:56:47;1.00;1.00
